sensor_id;sensor_type;location;lat;lon;timestamp;P1;durP1;ratioP1;P2;durP2;ratioP2
17604;SDS011;8921;50.964;6.800;2023-10-08T00:01:16;8.10;;;3.70;;
17604;SDS011;8921;50.964;6.800;2023-10-08T00:03:45;13.77;;;4.20;;
17604;SDS011;8921;50.964;6.800;2023-10-08T00:06:15;10.00;;;4.03;;
17604;SDS011;8921;50.964;6.800;2023-10-08T00:08:43;11.13;;;3.77;;
17604;SDS011;8921;50.964;6.800;2023-10-08T00:11:12;9.33;;;3.73;;
17604;SDS011;8921;50.964;6.800;2023-10-08T00:13:40;13.80;;;4.10;;
17604;SDS011;8921;50.964;6.800;2023-10-08T00:16:09;7.77;;;3.73;;
17604;SDS011;8921;50.964;6.800;2023-10-08T00:18:37;10.63;;;4.33;;
17604;SDS011;8921;50.964;6.800;2023-10-08T00:21:05;10.10;;;5.07;;
17604;SDS011;8921;50.964;6.800;2023-10-08T00:23:33;9.47;;;3.60;;
17604;SDS011;8921;50.964;6.800;2023-10-08T00:26:01;9.93;;;4.03;;
17604;SDS011;8921;50.964;6.800;2023-10-08T00:28:29;11.47;;;4.40;;
17604;SDS011;8921;50.964;6.800;2023-10-08T00:30:58;12.80;;;4.60;;
17604;SDS011;8921;50.964;6.800;2023-10-08T00:33:26;7.70;;;3.27;;
17604;SDS011;8921;50.964;6.800;2023-10-08T00:35:54;11.30;;;4.20;;
17604;SDS011;8921;50.964;6.800;2023-10-08T00:38:23;8.80;;;4.00;;
17604;SDS011;8921;50.964;6.800;2023-10-08T00:40:51;10.33;;;4.03;;
17604;SDS011;8921;50.964;6.800;2023-10-08T00:43:32;9.83;;;4.30;;
17604;SDS011;8921;50.964;6.800;2023-10-08T00:46:02;8.30;;;4.00;;
17604;SDS011;8921;50.964;6.800;2023-10-08T00:48:50;8.90;;;3.70;;
17604;SDS011;8921;50.964;6.800;2023-10-08T00:51:17;10.60;;;4.40;;
17604;SDS011;8921;50.964;6.800;2023-10-08T00:53:52;13.40;;;4.47;;
17604;SDS011;8921;50.964;6.800;2023-10-08T00:56:19;11.20;;;4.90;;
17604;SDS011;8921;50.964;6.800;2023-10-08T00:58:47;8.57;;;3.80;;
17604;SDS011;8921;50.964;6.800;2023-10-08T01:01:16;9.60;;;4.17;;
17604;SDS011;8921;50.964;6.800;2023-10-08T01:03:44;11.23;;;4.67;;
17604;SDS011;8921;50.964;6.800;2023-10-08T01:06:12;9.90;;;3.70;;
17604;SDS011;8921;50.964;6.800;2023-10-08T01:08:40;7.53;;;3.70;;
17604;SDS011;8921;50.964;6.800;2023-10-08T01:11:22;10.10;;;3.93;;
17604;SDS011;8921;50.964;6.800;2023-10-08T01:13:49;11.00;;;4.57;;
17604;SDS011;8921;50.964;6.800;2023-10-08T01:16:18;9.73;;;4.77;;
17604;SDS011;8921;50.964;6.800;2023-10-08T01:18:46;11.23;;;4.17;;
17604;SDS011;8921;50.964;6.800;2023-10-08T01:21:14;11.03;;;4.10;;
17604;SDS011;8921;50.964;6.800;2023-10-08T01:23:44;13.67;;;4.80;;
17604;SDS011;8921;50.964;6.800;2023-10-08T01:26:11;13.77;;;4.60;;
17604;SDS011;8921;50.964;6.800;2023-10-08T01:28:39;8.20;;;3.90;;
17604;SDS011;8921;50.964;6.800;2023-10-08T01:31:07;9.70;;;4.37;;
17604;SDS011;8921;50.964;6.800;2023-10-08T01:33:36;10.60;;;4.10;;
17604;SDS011;8921;50.964;6.800;2023-10-08T01:36:04;9.53;;;3.90;;
17604;SDS011;8921;50.964;6.800;2023-10-08T01:38:32;12.87;;;4.13;;
17604;SDS011;8921;50.964;6.800;2023-10-08T01:41:00;9.03;;;4.17;;
17604;SDS011;8921;50.964;6.800;2023-10-08T01:43:31;9.20;;;3.97;;
17604;SDS011;8921;50.964;6.800;2023-10-08T01:46:02;7.73;;;3.73;;
17604;SDS011;8921;50.964;6.800;2023-10-08T01:48:28;15.20;;;4.60;;
17604;SDS011;8921;50.964;6.800;2023-10-08T01:50:57;11.27;;;4.70;;
17604;SDS011;8921;50.964;6.800;2023-10-08T01:53:30;9.30;;;4.23;;
17604;SDS011;8921;50.964;6.800;2023-10-08T01:55:58;9.83;;;4.13;;
17604;SDS011;8921;50.964;6.800;2023-10-08T01:58:26;8.80;;;4.00;;
17604;SDS011;8921;50.964;6.800;2023-10-08T02:00:55;9.67;;;4.43;;
17604;SDS011;8921;50.964;6.800;2023-10-08T02:03:26;9.87;;;4.30;;
17604;SDS011;8921;50.964;6.800;2023-10-08T02:05:54;12.70;;;4.37;;
17604;SDS011;8921;50.964;6.800;2023-10-08T02:08:22;9.40;;;3.60;;
17604;SDS011;8921;50.964;6.800;2023-10-08T02:10:51;8.97;;;4.33;;
17604;SDS011;8921;50.964;6.800;2023-10-08T02:13:19;16.03;;;4.30;;
17604;SDS011;8921;50.964;6.800;2023-10-08T02:15:50;11.33;;;4.30;;
17604;SDS011;8921;50.964;6.800;2023-10-08T02:18:19;8.63;;;4.70;;
17604;SDS011;8921;50.964;6.800;2023-10-08T02:20:47;12.83;;;4.90;;
17604;SDS011;8921;50.964;6.800;2023-10-08T02:23:15;8.37;;;3.87;;
17604;SDS011;8921;50.964;6.800;2023-10-08T02:25:43;14.03;;;4.40;;
17604;SDS011;8921;50.964;6.800;2023-10-08T02:28:11;12.30;;;3.97;;
17604;SDS011;8921;50.964;6.800;2023-10-08T02:30:40;11.03;;;4.30;;
17604;SDS011;8921;50.964;6.800;2023-10-08T02:33:08;11.53;;;5.27;;
17604;SDS011;8921;50.964;6.800;2023-10-08T02:35:42;10.43;;;4.57;;
17604;SDS011;8921;50.964;6.800;2023-10-08T02:38:10;11.77;;;4.03;;
17604;SDS011;8921;50.964;6.800;2023-10-08T02:40:39;8.83;;;4.47;;
17604;SDS011;8921;50.964;6.800;2023-10-08T02:43:13;11.00;;;4.60;;
17604;SDS011;8921;50.964;6.800;2023-10-08T02:45:41;9.00;;;4.47;;
17604;SDS011;8921;50.964;6.800;2023-10-08T02:48:10;13.63;;;4.17;;
17604;SDS011;8921;50.964;6.800;2023-10-08T02:50:41;10.27;;;4.80;;
17604;SDS011;8921;50.964;6.800;2023-10-08T02:53:09;14.13;;;4.37;;
17604;SDS011;8921;50.964;6.800;2023-10-08T02:55:40;13.50;;;3.97;;
17604;SDS011;8921;50.964;6.800;2023-10-08T02:58:08;10.10;;;4.57;;
17604;SDS011;8921;50.964;6.800;2023-10-08T03:00:37;10.50;;;4.90;;
17604;SDS011;8921;50.964;6.800;2023-10-08T03:03:05;9.53;;;3.80;;
17604;SDS011;8921;50.964;6.800;2023-10-08T03:05:36;9.33;;;3.73;;
17604;SDS011;8921;50.964;6.800;2023-10-08T03:08:04;12.00;;;4.10;;
17604;SDS011;8921;50.964;6.800;2023-10-08T03:10:36;11.83;;;5.10;;
17604;SDS011;8921;50.964;6.800;2023-10-08T03:13:04;13.33;;;4.50;;
17604;SDS011;8921;50.964;6.800;2023-10-08T03:15:32;11.83;;;4.13;;
17604;SDS011;8921;50.964;6.800;2023-10-08T03:18:03;11.20;;;4.63;;
17604;SDS011;8921;50.964;6.800;2023-10-08T03:20:37;10.90;;;4.43;;
17604;SDS011;8921;50.964;6.800;2023-10-08T03:23:09;10.60;;;4.90;;
17604;SDS011;8921;50.964;6.800;2023-10-08T03:25:40;13.03;;;5.50;;
17604;SDS011;8921;50.964;6.800;2023-10-08T03:28:08;12.80;;;5.27;;
17604;SDS011;8921;50.964;6.800;2023-10-08T03:30:36;13.43;;;4.57;;
17604;SDS011;8921;50.964;6.800;2023-10-08T03:33:04;8.83;;;3.57;;
17604;SDS011;8921;50.964;6.800;2023-10-08T03:35:33;12.40;;;4.40;;
17604;SDS011;8921;50.964;6.800;2023-10-08T03:38:01;13.37;;;5.27;;
17604;SDS011;8921;50.964;6.800;2023-10-08T03:40:29;10.30;;;4.70;;
17604;SDS011;8921;50.964;6.800;2023-10-08T03:43:10;15.70;;;4.57;;
17604;SDS011;8921;50.964;6.800;2023-10-08T03:45:47;12.50;;;4.60;;
17604;SDS011;8921;50.964;6.800;2023-10-08T03:48:19;13.73;;;4.60;;
17604;SDS011;8921;50.964;6.800;2023-10-08T03:50:46;10.30;;;4.13;;
17604;SDS011;8921;50.964;6.800;2023-10-08T03:53:15;9.97;;;4.47;;
17604;SDS011;8921;50.964;6.800;2023-10-08T03:55:43;11.90;;;4.43;;
17604;SDS011;8921;50.964;6.800;2023-10-08T03:58:11;9.83;;;5.13;;
17604;SDS011;8921;50.964;6.800;2023-10-08T04:00:39;11.83;;;4.40;;
17604;SDS011;8921;50.964;6.800;2023-10-08T04:03:08;12.80;;;4.80;;
17604;SDS011;8921;50.964;6.800;2023-10-08T04:05:36;13.30;;;5.53;;
17604;SDS011;8921;50.964;6.800;2023-10-08T04:08:16;13.40;;;4.40;;
17604;SDS011;8921;50.964;6.800;2023-10-08T04:10:51;9.80;;;4.63;;
17604;SDS011;8921;50.964;6.800;2023-10-08T04:13:34;14.83;;;4.67;;
17604;SDS011;8921;50.964;6.800;2023-10-08T04:16:02;9.10;;;3.77;;
17604;SDS011;8921;50.964;6.800;2023-10-08T04:18:31;12.50;;;4.43;;
17604;SDS011;8921;50.964;6.800;2023-10-08T04:20:59;12.80;;;4.43;;
17604;SDS011;8921;50.964;6.800;2023-10-08T04:23:27;9.63;;;4.30;;
17604;SDS011;8921;50.964;6.800;2023-10-08T04:25:55;9.70;;;4.63;;
17604;SDS011;8921;50.964;6.800;2023-10-08T04:28:24;9.63;;;4.17;;
17604;SDS011;8921;50.964;6.800;2023-10-08T04:30:52;14.13;;;4.60;;
17604;SDS011;8921;50.964;6.800;2023-10-08T04:33:20;11.77;;;4.53;;
17604;SDS011;8921;50.964;6.800;2023-10-08T04:35:48;10.80;;;3.90;;
17604;SDS011;8921;50.964;6.800;2023-10-08T04:38:23;14.60;;;6.00;;
17604;SDS011;8921;50.964;6.800;2023-10-08T04:40:54;8.87;;;4.73;;
17604;SDS011;8921;50.964;6.800;2023-10-08T04:43:23;11.10;;;4.47;;
17604;SDS011;8921;50.964;6.800;2023-10-08T04:45:57;9.97;;;4.67;;
17604;SDS011;8921;50.964;6.800;2023-10-08T04:48:25;11.10;;;5.23;;
17604;SDS011;8921;50.964;6.800;2023-10-08T04:50:53;9.90;;;4.43;;
17604;SDS011;8921;50.964;6.800;2023-10-08T04:53:25;11.30;;;3.90;;
17604;SDS011;8921;50.964;6.800;2023-10-08T04:55:52;13.33;;;4.97;;
17604;SDS011;8921;50.964;6.800;2023-10-08T04:58:21;8.80;;;4.20;;
17604;SDS011;8921;50.964;6.800;2023-10-08T05:00:49;13.80;;;4.80;;
17604;SDS011;8921;50.964;6.800;2023-10-08T05:03:17;12.40;;;4.70;;
17604;SDS011;8921;50.964;6.800;2023-10-08T05:05:46;10.63;;;5.23;;
17604;SDS011;8921;50.964;6.800;2023-10-08T05:08:32;10.10;;;4.10;;
17604;SDS011;8921;50.964;6.800;2023-10-08T05:11:00;14.13;;;4.90;;
17604;SDS011;8921;50.964;6.800;2023-10-08T05:13:28;13.23;;;6.30;;
17604;SDS011;8921;50.964;6.800;2023-10-08T05:15:57;9.90;;;3.90;;
17604;SDS011;8921;50.964;6.800;2023-10-08T05:18:40;10.27;;;5.67;;
17604;SDS011;8921;50.964;6.800;2023-10-08T05:21:20;10.03;;;4.30;;
17604;SDS011;8921;50.964;6.800;2023-10-08T05:23:54;10.10;;;4.30;;
17604;SDS011;8921;50.964;6.800;2023-10-08T05:26:40;12.47;;;4.90;;
17604;SDS011;8921;50.964;6.800;2023-10-08T05:29:09;15.63;;;4.13;;
17604;SDS011;8921;50.964;6.800;2023-10-08T05:31:52;12.93;;;4.60;;
17604;SDS011;8921;50.964;6.800;2023-10-08T05:34:20;11.33;;;5.00;;
17604;SDS011;8921;50.964;6.800;2023-10-08T05:36:48;12.70;;;4.37;;
17604;SDS011;8921;50.964;6.800;2023-10-08T05:39:26;11.83;;;5.60;;
17604;SDS011;8921;50.964;6.800;2023-10-08T05:41:57;15.23;;;6.00;;
17604;SDS011;8921;50.964;6.800;2023-10-08T05:44:28;12.60;;;4.80;;
17604;SDS011;8921;50.964;6.800;2023-10-08T05:46:56;11.33;;;3.90;;
17604;SDS011;8921;50.964;6.800;2023-10-08T05:49:33;10.07;;;4.57;;
17604;SDS011;8921;50.964;6.800;2023-10-08T05:52:02;11.83;;;4.90;;
17604;SDS011;8921;50.964;6.800;2023-10-08T05:54:30;10.93;;;4.53;;
17604;SDS011;8921;50.964;6.800;2023-10-08T05:56:59;11.73;;;5.33;;
17604;SDS011;8921;50.964;6.800;2023-10-08T05:59:33;15.67;;;4.73;;
17604;SDS011;8921;50.964;6.800;2023-10-08T06:02:20;9.90;;;4.90;;
17604;SDS011;8921;50.964;6.800;2023-10-08T06:04:54;14.80;;;5.40;;
17604;SDS011;8921;50.964;6.800;2023-10-08T06:07:41;9.67;;;4.97;;
17604;SDS011;8921;50.964;6.800;2023-10-08T06:10:26;12.83;;;5.37;;
17604;SDS011;8921;50.964;6.800;2023-10-08T06:12:57;14.53;;;5.63;;
17604;SDS011;8921;50.964;6.800;2023-10-08T06:15:28;11.23;;;5.23;;
17604;SDS011;8921;50.964;6.800;2023-10-08T06:17:56;12.40;;;6.13;;
17604;SDS011;8921;50.964;6.800;2023-10-08T06:20:27;11.47;;;5.10;;
17604;SDS011;8921;50.964;6.800;2023-10-08T06:22:56;9.13;;;5.33;;
17604;SDS011;8921;50.964;6.800;2023-10-08T06:25:24;9.80;;;5.00;;
17604;SDS011;8921;50.964;6.800;2023-10-08T06:27:52;15.13;;;6.97;;
17604;SDS011;8921;50.964;6.800;2023-10-08T06:30:21;14.83;;;4.77;;
17604;SDS011;8921;50.964;6.800;2023-10-08T06:32:49;10.60;;;5.40;;
17604;SDS011;8921;50.964;6.800;2023-10-08T06:35:17;9.27;;;4.30;;
17604;SDS011;8921;50.964;6.800;2023-10-08T06:37:45;8.70;;;4.20;;
17604;SDS011;8921;50.964;6.800;2023-10-08T06:40:16;11.33;;;5.03;;
17604;SDS011;8921;50.964;6.800;2023-10-08T06:43:03;11.90;;;4.90;;
17604;SDS011;8921;50.964;6.800;2023-10-08T06:45:49;13.03;;;3.93;;
17604;SDS011;8921;50.964;6.800;2023-10-08T06:48:21;14.73;;;5.43;;
17604;SDS011;8921;50.964;6.800;2023-10-08T06:50:49;11.33;;;4.53;;
17604;SDS011;8921;50.964;6.800;2023-10-08T06:53:17;10.07;;;4.70;;
17604;SDS011;8921;50.964;6.800;2023-10-08T06:55:45;13.23;;;6.30;;
17604;SDS011;8921;50.964;6.800;2023-10-08T06:58:13;14.93;;;5.57;;
17604;SDS011;8921;50.964;6.800;2023-10-08T07:00:41;14.77;;;6.83;;
17604;SDS011;8921;50.964;6.800;2023-10-08T07:03:13;11.07;;;5.70;;
17604;SDS011;8921;50.964;6.800;2023-10-08T07:05:47;15.10;;;5.43;;
17604;SDS011;8921;50.964;6.800;2023-10-08T07:08:28;11.57;;;5.13;;
17604;SDS011;8921;50.964;6.800;2023-10-08T07:10:55;11.87;;;4.83;;
17604;SDS011;8921;50.964;6.800;2023-10-08T07:13:23;11.90;;;4.53;;
17604;SDS011;8921;50.964;6.800;2023-10-08T07:15:52;14.23;;;4.50;;
17604;SDS011;8921;50.964;6.800;2023-10-08T07:18:19;13.67;;;4.97;;
17604;SDS011;8921;50.964;6.800;2023-10-08T07:20:48;13.67;;;5.00;;
17604;SDS011;8921;50.964;6.800;2023-10-08T07:23:16;13.77;;;4.47;;
17604;SDS011;8921;50.964;6.800;2023-10-08T07:25:51;14.93;;;4.80;;
17604;SDS011;8921;50.964;6.800;2023-10-08T07:28:15;21.83;;;6.40;;
17604;SDS011;8921;50.964;6.800;2023-10-08T07:30:43;11.87;;;4.70;;
17604;SDS011;8921;50.964;6.800;2023-10-08T07:33:12;11.80;;;4.20;;
17604;SDS011;8921;50.964;6.800;2023-10-08T07:35:40;11.00;;;4.30;;
17604;SDS011;8921;50.964;6.800;2023-10-08T07:38:08;12.17;;;4.30;;
17604;SDS011;8921;50.964;6.800;2023-10-08T07:40:36;10.93;;;4.47;;
17604;SDS011;8921;50.964;6.800;2023-10-08T07:43:05;11.23;;;5.03;;
17604;SDS011;8921;50.964;6.800;2023-10-08T07:45:33;10.63;;;4.53;;
17604;SDS011;8921;50.964;6.800;2023-10-08T07:48:01;12.73;;;5.80;;
17604;SDS011;8921;50.964;6.800;2023-10-08T07:50:32;12.60;;;5.13;;
17604;SDS011;8921;50.964;6.800;2023-10-08T07:53:01;12.60;;;4.87;;
17604;SDS011;8921;50.964;6.800;2023-10-08T07:55:29;14.87;;;5.43;;
17604;SDS011;8921;50.964;6.800;2023-10-08T07:57:58;11.93;;;4.47;;
17604;SDS011;8921;50.964;6.800;2023-10-08T08:00:26;13.20;;;5.70;;
17604;SDS011;8921;50.964;6.800;2023-10-08T08:02:54;12.83;;;5.57;;
17604;SDS011;8921;50.964;6.800;2023-10-08T08:05:22;13.83;;;4.80;;
17604;SDS011;8921;50.964;6.800;2023-10-08T08:07:50;13.33;;;5.33;;
17604;SDS011;8921;50.964;6.800;2023-10-08T08:10:19;17.63;;;5.20;;
17604;SDS011;8921;50.964;6.800;2023-10-08T08:12:47;20.33;;;6.47;;
17604;SDS011;8921;50.964;6.800;2023-10-08T08:15:15;17.00;;;5.20;;
17604;SDS011;8921;50.964;6.800;2023-10-08T08:17:46;16.60;;;5.00;;
17604;SDS011;8921;50.964;6.800;2023-10-08T08:20:15;16.90;;;5.10;;
17604;SDS011;8921;50.964;6.800;2023-10-08T08:22:46;13.57;;;5.40;;
17604;SDS011;8921;50.964;6.800;2023-10-08T08:25:14;10.30;;;4.80;;
17604;SDS011;8921;50.964;6.800;2023-10-08T08:27:43;13.23;;;5.20;;
17604;SDS011;8921;50.964;6.800;2023-10-08T08:30:11;10.30;;;4.27;;
17604;SDS011;8921;50.964;6.800;2023-10-08T08:32:39;12.40;;;5.30;;
17604;SDS011;8921;50.964;6.800;2023-10-08T08:35:08;17.50;;;6.87;;
17604;SDS011;8921;50.964;6.800;2023-10-08T08:37:36;10.77;;;4.97;;
17604;SDS011;8921;50.964;6.800;2023-10-08T08:40:07;13.90;;;5.50;;
17604;SDS011;8921;50.964;6.800;2023-10-08T08:42:35;14.30;;;6.47;;
17604;SDS011;8921;50.964;6.800;2023-10-08T08:45:06;13.77;;;5.20;;
17604;SDS011;8921;50.964;6.800;2023-10-08T08:47:32;11.47;;;5.43;;
17604;SDS011;8921;50.964;6.800;2023-10-08T08:50:01;14.50;;;5.73;;
17604;SDS011;8921;50.964;6.800;2023-10-08T08:52:29;11.37;;;5.57;;
17604;SDS011;8921;50.964;6.800;2023-10-08T08:54:57;15.00;;;6.40;;
17604;SDS011;8921;50.964;6.800;2023-10-08T08:57:25;11.77;;;5.43;;
17604;SDS011;8921;50.964;6.800;2023-10-08T08:59:54;14.97;;;5.43;;
17604;SDS011;8921;50.964;6.800;2023-10-08T09:02:22;11.37;;;5.20;;
17604;SDS011;8921;50.964;6.800;2023-10-08T09:04:50;11.90;;;5.37;;
17604;SDS011;8921;50.964;6.800;2023-10-08T09:07:21;12.23;;;5.83;;
17604;SDS011;8921;50.964;6.800;2023-10-08T09:09:50;16.30;;;6.03;;
17604;SDS011;8921;50.964;6.800;2023-10-08T09:12:18;11.37;;;5.47;;
17604;SDS011;8921;50.964;6.800;2023-10-08T09:14:46;10.33;;;4.53;;
17604;SDS011;8921;50.964;6.800;2023-10-08T09:17:16;12.47;;;5.20;;
17604;SDS011;8921;50.964;6.800;2023-10-08T09:19:43;12.27;;;5.07;;
17604;SDS011;8921;50.964;6.800;2023-10-08T09:22:11;12.00;;;5.37;;
17604;SDS011;8921;50.964;6.800;2023-10-08T09:24:40;16.23;;;5.90;;
17604;SDS011;8921;50.964;6.800;2023-10-08T09:27:11;12.97;;;5.90;;
17604;SDS011;8921;50.964;6.800;2023-10-08T09:29:42;16.87;;;6.43;;
17604;SDS011;8921;50.964;6.800;2023-10-08T09:32:11;20.83;;;6.80;;
17604;SDS011;8921;50.964;6.800;2023-10-08T09:34:38;17.27;;;6.50;;
17604;SDS011;8921;50.964;6.800;2023-10-08T09:37:06;20.80;;;9.10;;
17604;SDS011;8921;50.964;6.800;2023-10-08T09:39:35;21.83;;;8.53;;
17604;SDS011;8921;50.964;6.800;2023-10-08T09:42:03;18.17;;;7.20;;
17604;SDS011;8921;50.964;6.800;2023-10-08T09:44:34;19.97;;;6.93;;
17604;SDS011;8921;50.964;6.800;2023-10-08T09:47:06;18.20;;;7.30;;
17604;SDS011;8921;50.964;6.800;2023-10-08T09:49:40;26.70;;;6.70;;
17604;SDS011;8921;50.964;6.800;2023-10-08T09:52:08;14.23;;;6.07;;
17604;SDS011;8921;50.964;6.800;2023-10-08T09:57:10;23.57;;;6.63;;
17604;SDS011;8921;50.964;6.800;2023-10-08T09:59:39;24.50;;;6.40;;
17604;SDS011;8921;50.964;6.800;2023-10-08T10:02:07;12.77;;;6.40;;
17604;SDS011;8921;50.964;6.800;2023-10-08T10:04:35;20.03;;;7.07;;
17604;SDS011;8921;50.964;6.800;2023-10-08T10:07:10;19.33;;;6.63;;
17604;SDS011;8921;50.964;6.800;2023-10-08T10:09:37;16.90;;;7.23;;
17604;SDS011;8921;50.964;6.800;2023-10-08T10:12:05;20.10;;;7.50;;
17604;SDS011;8921;50.964;6.800;2023-10-08T10:14:40;19.33;;;7.73;;
17604;SDS011;8921;50.964;6.800;2023-10-08T10:17:15;18.87;;;7.50;;
17604;SDS011;8921;50.964;6.800;2023-10-08T10:19:42;28.47;;;7.57;;
17604;SDS011;8921;50.964;6.800;2023-10-08T10:22:12;29.87;;;7.07;;
17604;SDS011;8921;50.964;6.800;2023-10-08T10:24:39;22.57;;;7.90;;
17604;SDS011;8921;50.964;6.800;2023-10-08T10:27:13;15.27;;;6.67;;
17604;SDS011;8921;50.964;6.800;2023-10-08T10:29:42;19.83;;;7.87;;
17604;SDS011;8921;50.964;6.800;2023-10-08T10:32:10;15.80;;;7.27;;
17604;SDS011;8921;50.964;6.800;2023-10-08T10:34:38;18.30;;;8.07;;
17604;SDS011;8921;50.964;6.800;2023-10-08T10:37:07;22.70;;;7.77;;
17604;SDS011;8921;50.964;6.800;2023-10-08T10:39:53;17.60;;;7.30;;
17604;SDS011;8921;50.964;6.800;2023-10-08T10:42:27;17.17;;;7.63;;
17604;SDS011;8921;50.964;6.800;2023-10-08T10:44:55;19.90;;;8.57;;
17604;SDS011;8921;50.964;6.800;2023-10-08T10:47:23;19.90;;;7.20;;
17604;SDS011;8921;50.964;6.800;2023-10-08T10:49:54;20.80;;;7.43;;
17604;SDS011;8921;50.964;6.800;2023-10-08T10:52:28;17.77;;;8.30;;
17604;SDS011;8921;50.964;6.800;2023-10-08T10:55:13;17.97;;;8.33;;
17604;SDS011;8921;50.964;6.800;2023-10-08T10:57:40;21.53;;;8.00;;
17604;SDS011;8921;50.964;6.800;2023-10-08T11:00:11;23.47;;;7.03;;
17604;SDS011;8921;50.964;6.800;2023-10-08T11:02:45;22.53;;;8.10;;
17604;SDS011;8921;50.964;6.800;2023-10-08T11:05:14;20.10;;;8.67;;
17604;SDS011;8921;50.964;6.800;2023-10-08T11:07:42;19.70;;;8.13;;
17604;SDS011;8921;50.964;6.800;2023-10-08T11:10:10;22.30;;;8.60;;
17604;SDS011;8921;50.964;6.800;2023-10-08T11:12:38;19.93;;;8.87;;
17604;SDS011;8921;50.964;6.800;2023-10-08T11:15:10;22.07;;;9.37;;
17604;SDS011;8921;50.964;6.800;2023-10-08T11:17:41;18.03;;;9.43;;
17604;SDS011;8921;50.964;6.800;2023-10-08T11:20:27;31.20;;;8.27;;
17604;SDS011;8921;50.964;6.800;2023-10-08T11:22:56;21.97;;;8.80;;
17604;SDS011;8921;50.964;6.800;2023-10-08T11:25:24;28.97;;;8.97;;
17604;SDS011;8921;50.964;6.800;2023-10-08T11:27:55;27.73;;;12.63;;
17604;SDS011;8921;50.964;6.800;2023-10-08T11:30:26;23.27;;;8.20;;
17604;SDS011;8921;50.964;6.800;2023-10-08T11:32:54;22.63;;;7.83;;
17604;SDS011;8921;50.964;6.800;2023-10-08T11:35:22;24.57;;;9.70;;
17604;SDS011;8921;50.964;6.800;2023-10-08T11:37:51;26.70;;;9.47;;
17604;SDS011;8921;50.964;6.800;2023-10-08T11:40:22;30.63;;;8.47;;
17604;SDS011;8921;50.964;6.800;2023-10-08T11:42:50;21.77;;;9.30;;
17604;SDS011;8921;50.964;6.800;2023-10-08T11:45:19;20.70;;;8.93;;
17604;SDS011;8921;50.964;6.800;2023-10-08T11:47:53;21.93;;;10.83;;
17604;SDS011;8921;50.964;6.800;2023-10-08T11:50:27;25.43;;;8.50;;
17604;SDS011;8921;50.964;6.800;2023-10-08T11:52:59;30.20;;;10.40;;
17604;SDS011;8921;50.964;6.800;2023-10-08T11:55:27;25.57;;;11.60;;
17604;SDS011;8921;50.964;6.800;2023-10-08T11:57:55;20.03;;;9.23;;
17604;SDS011;8921;50.964;6.800;2023-10-08T12:00:23;22.37;;;11.00;;
17604;SDS011;8921;50.964;6.800;2023-10-08T12:02:52;19.47;;;10.17;;
17604;SDS011;8921;50.964;6.800;2023-10-08T12:05:22;31.60;;;11.60;;
17604;SDS011;8921;50.964;6.800;2023-10-08T12:07:51;24.43;;;11.20;;
17604;SDS011;8921;50.964;6.800;2023-10-08T12:10:19;23.60;;;11.50;;
17604;SDS011;8921;50.964;6.800;2023-10-08T12:12:51;23.80;;;10.30;;
17604;SDS011;8921;50.964;6.800;2023-10-08T12:15:19;22.70;;;10.83;;
17604;SDS011;8921;50.964;6.800;2023-10-08T12:17:47;25.30;;;12.40;;
17604;SDS011;8921;50.964;6.800;2023-10-08T12:20:37;22.50;;;10.83;;
17604;SDS011;8921;50.964;6.800;2023-10-08T12:23:05;28.87;;;10.30;;
17604;SDS011;8921;50.964;6.800;2023-10-08T12:25:33;23.33;;;11.10;;
17604;SDS011;8921;50.964;6.800;2023-10-08T12:28:01;25.30;;;11.33;;
17604;SDS011;8921;50.964;6.800;2023-10-08T12:30:30;21.53;;;11.10;;
17604;SDS011;8921;50.964;6.800;2023-10-08T12:32:58;20.43;;;10.50;;
17604;SDS011;8921;50.964;6.800;2023-10-08T12:35:26;21.73;;;11.50;;
17604;SDS011;8921;50.964;6.800;2023-10-08T12:37:55;22.97;;;10.27;;
17604;SDS011;8921;50.964;6.800;2023-10-08T12:40:23;23.30;;;9.87;;
17604;SDS011;8921;50.964;6.800;2023-10-08T12:42:51;29.07;;;11.00;;
17604;SDS011;8921;50.964;6.800;2023-10-08T12:45:19;26.30;;;12.23;;
17604;SDS011;8921;50.964;6.800;2023-10-08T12:47:48;21.50;;;10.47;;
17604;SDS011;8921;50.964;6.800;2023-10-08T12:50:19;20.27;;;9.30;;
17604;SDS011;8921;50.964;6.800;2023-10-08T12:52:44;23.50;;;10.27;;
17604;SDS011;8921;50.964;6.800;2023-10-08T12:55:15;22.60;;;10.47;;
17604;SDS011;8921;50.964;6.800;2023-10-08T12:57:44;21.93;;;9.60;;
17604;SDS011;8921;50.964;6.800;2023-10-08T13:00:12;20.93;;;10.10;;
17604;SDS011;8921;50.964;6.800;2023-10-08T13:02:40;21.47;;;9.40;;
17604;SDS011;8921;50.964;6.800;2023-10-08T13:05:09;25.57;;;11.57;;
17604;SDS011;8921;50.964;6.800;2023-10-08T13:07:37;18.53;;;9.23;;
17604;SDS011;8921;50.964;6.800;2023-10-08T13:10:05;19.97;;;10.03;;
17604;SDS011;8921;50.964;6.800;2023-10-08T13:12:34;22.37;;;9.93;;
17604;SDS011;8921;50.964;6.800;2023-10-08T13:15:02;25.00;;;10.20;;
17604;SDS011;8921;50.964;6.800;2023-10-08T13:17:31;26.17;;;11.00;;
17604;SDS011;8921;50.964;6.800;2023-10-08T13:19:59;28.23;;;10.93;;
17604;SDS011;8921;50.964;6.800;2023-10-08T13:22:27;30.93;;;11.00;;
17604;SDS011;8921;50.964;6.800;2023-10-08T13:24:55;18.77;;;10.13;;
17604;SDS011;8921;50.964;6.800;2023-10-08T13:27:24;22.40;;;11.30;;
17604;SDS011;8921;50.964;6.800;2023-10-08T13:29:52;16.83;;;9.30;;
17604;SDS011;8921;50.964;6.800;2023-10-08T13:32:20;26.43;;;10.90;;
17604;SDS011;8921;50.964;6.800;2023-10-08T13:34:49;19.37;;;9.60;;
17604;SDS011;8921;50.964;6.800;2023-10-08T13:37:17;21.80;;;9.80;;
17604;SDS011;8921;50.964;6.800;2023-10-08T13:39:45;27.47;;;10.03;;
17604;SDS011;8921;50.964;6.800;2023-10-08T13:42:13;22.17;;;10.93;;
17604;SDS011;8921;50.964;6.800;2023-10-08T13:44:42;26.47;;;11.40;;
17604;SDS011;8921;50.964;6.800;2023-10-08T13:47:10;18.77;;;9.43;;
17604;SDS011;8921;50.964;6.800;2023-10-08T13:49:38;26.53;;;11.70;;
17604;SDS011;8921;50.964;6.800;2023-10-08T13:52:07;22.70;;;10.40;;
17604;SDS011;8921;50.964;6.800;2023-10-08T13:54:35;27.10;;;12.67;;
17604;SDS011;8921;50.964;6.800;2023-10-08T13:57:03;24.67;;;10.93;;
17604;SDS011;8921;50.964;6.800;2023-10-08T13:59:31;17.73;;;9.50;;
17604;SDS011;8921;50.964;6.800;2023-10-08T14:02:00;20.03;;;9.60;;
17604;SDS011;8921;50.964;6.800;2023-10-08T14:04:31;21.03;;;9.43;;
17604;SDS011;8921;50.964;6.800;2023-10-08T14:06:59;24.33;;;9.53;;
17604;SDS011;8921;50.964;6.800;2023-10-08T14:09:27;23.37;;;11.50;;
17604;SDS011;8921;50.964;6.800;2023-10-08T14:11:58;20.93;;;9.73;;
17604;SDS011;8921;50.964;6.800;2023-10-08T14:14:26;21.93;;;11.70;;
17604;SDS011;8921;50.964;6.800;2023-10-08T14:16:58;28.23;;;12.10;;
17604;SDS011;8921;50.964;6.800;2023-10-08T14:19:26;25.57;;;11.17;;
17604;SDS011;8921;50.964;6.800;2023-10-08T14:22:06;24.80;;;11.30;;
17604;SDS011;8921;50.964;6.800;2023-10-08T14:24:34;25.43;;;10.93;;
17604;SDS011;8921;50.964;6.800;2023-10-08T14:27:05;23.00;;;11.20;;
17604;SDS011;8921;50.964;6.800;2023-10-08T14:29:31;25.20;;;11.27;;
17604;SDS011;8921;50.964;6.800;2023-10-08T14:31:59;23.53;;;11.50;;
17604;SDS011;8921;50.964;6.800;2023-10-08T14:34:27;31.33;;;10.97;;
17604;SDS011;8921;50.964;6.800;2023-10-08T14:36:56;24.93;;;10.43;;
17604;SDS011;8921;50.964;6.800;2023-10-08T14:39:43;20.63;;;8.97;;
17604;SDS011;8921;50.964;6.800;2023-10-08T14:42:30;21.83;;;9.13;;
17604;SDS011;8921;50.964;6.800;2023-10-08T14:45:17;24.50;;;9.40;;
17604;SDS011;8921;50.964;6.800;2023-10-08T14:47:45;22.70;;;9.50;;
17604;SDS011;8921;50.964;6.800;2023-10-08T14:50:13;19.30;;;10.47;;
17604;SDS011;8921;50.964;6.800;2023-10-08T14:52:45;25.97;;;11.27;;
17604;SDS011;8921;50.964;6.800;2023-10-08T14:55:13;25.20;;;11.80;;
17604;SDS011;8921;50.964;6.800;2023-10-08T14:57:41;21.80;;;10.87;;
17604;SDS011;8921;50.964;6.800;2023-10-08T15:00:10;22.13;;;9.67;;
17604;SDS011;8921;50.964;6.800;2023-10-08T15:02:38;17.53;;;9.80;;
17604;SDS011;8921;50.964;6.800;2023-10-08T15:05:06;25.77;;;11.40;;
17604;SDS011;8921;50.964;6.800;2023-10-08T15:07:35;21.57;;;10.50;;